sensor_id;sensor_type;location;lat;lon;timestamp;P1;durP1;ratioP1;P2;durP2;ratioP2
60026;SDS011;45891;53.006;6.512;2023-06-14T00:02:14;9.50;;;2.20;;
60026;SDS011;45891;53.006;6.512;2023-06-14T00:04:41;9.63;;;2.10;;
60026;SDS011;45891;53.006;6.512;2023-06-14T00:07:11;15.25;;;2.20;;
60026;SDS011;45891;53.006;6.512;2023-06-14T00:09:42;14.32;;;2.30;;
60026;SDS011;45891;53.006;6.512;2023-06-14T00:12:08;7.55;;;1.92;;
60026;SDS011;45891;53.006;6.512;2023-06-14T00:14:37;9.50;;;2.08;;
60026;SDS011;45891;53.006;6.512;2023-06-14T00:17:06;9.48;;;2.20;;
60026;SDS011;45891;53.006;6.512;2023-06-14T00:19:32;7.47;;;1.80;;
60026;SDS011;45891;53.006;6.512;2023-06-14T00:22:00;9.88;;;2.00;;
60026;SDS011;45891;53.006;6.512;2023-06-14T00:24:27;11.25;;;2.28;;
60026;SDS011;45891;53.006;6.512;2023-06-14T00:26:56;10.07;;;2.22;;
60026;SDS011;45891;53.006;6.512;2023-06-14T00:29:22;11.55;;;2.38;;
60026;SDS011;45891;53.006;6.512;2023-06-14T00:31:48;10.25;;;2.15;;
60026;SDS011;45891;53.006;6.512;2023-06-14T00:34:14;8.38;;;1.90;;
60026;SDS011;45891;53.006;6.512;2023-06-14T00:36:40;8.85;;;2.10;;
60026;SDS011;45891;53.006;6.512;2023-06-14T00:39:06;10.65;;;2.25;;
60026;SDS011;45891;53.006;6.512;2023-06-14T00:41:32;10.95;;;2.10;;
60026;SDS011;45891;53.006;6.512;2023-06-14T00:43:58;9.25;;;2.17;;
60026;SDS011;45891;53.006;6.512;2023-06-14T00:46:28;6.80;;;2.13;;
60026;SDS011;45891;53.006;6.512;2023-06-14T00:48:55;9.73;;;2.20;;
60026;SDS011;45891;53.006;6.512;2023-06-14T00:51:22;11.68;;;2.13;;
60026;SDS011;45891;53.006;6.512;2023-06-14T00:53:51;11.63;;;2.22;;
60026;SDS011;45891;53.006;6.512;2023-06-14T00:56:17;7.65;;;2.10;;
60026;SDS011;45891;53.006;6.512;2023-06-14T00:58:49;10.10;;;2.00;;
60026;SDS011;45891;53.006;6.512;2023-06-14T01:01:16;7.47;;;2.20;;
60026;SDS011;45891;53.006;6.512;2023-06-14T01:03:42;7.22;;;2.00;;
60026;SDS011;45891;53.006;6.512;2023-06-14T01:06:13;7.20;;;1.90;;
60026;SDS011;45891;53.006;6.512;2023-06-14T01:11:25;12.57;;;2.67;;
60026;SDS011;45891;53.006;6.512;2023-06-14T01:14:01;8.00;;;2.00;;
60026;SDS011;45891;53.006;6.512;2023-06-14T01:16:31;7.97;;;2.05;;
60026;SDS011;45891;53.006;6.512;2023-06-14T01:19:00;8.00;;;1.85;;
60026;SDS011;45891;53.006;6.512;2023-06-14T01:21:27;7.30;;;1.98;;
60026;SDS011;45891;53.006;6.512;2023-06-14T01:23:54;8.82;;;2.38;;
60026;SDS011;45891;53.006;6.512;2023-06-14T01:26:21;7.93;;;2.30;;
60026;SDS011;45891;53.006;6.512;2023-06-14T01:28:48;10.07;;;2.42;;
60026;SDS011;45891;53.006;6.512;2023-06-14T01:31:17;9.48;;;2.40;;
60026;SDS011;45891;53.006;6.512;2023-06-14T01:33:45;9.73;;;2.67;;
60026;SDS011;45891;53.006;6.512;2023-06-14T01:36:12;14.45;;;2.90;;
60026;SDS011;45891;53.006;6.512;2023-06-14T01:38:38;8.45;;;2.65;;
60026;SDS011;45891;53.006;6.512;2023-06-14T01:41:06;9.40;;;2.78;;
60026;SDS011;45891;53.006;6.512;2023-06-14T01:43:35;11.80;;;2.42;;
60026;SDS011;45891;53.006;6.512;2023-06-14T01:46:02;9.45;;;2.47;;
60026;SDS011;45891;53.006;6.512;2023-06-14T01:48:29;10.90;;;2.87;;
60026;SDS011;45891;53.006;6.512;2023-06-14T01:50:58;12.70;;;2.78;;
60026;SDS011;45891;53.006;6.512;2023-06-14T01:53:24;12.77;;;2.65;;
60026;SDS011;45891;53.006;6.512;2023-06-14T01:55:50;8.40;;;2.50;;
60026;SDS011;45891;53.006;6.512;2023-06-14T01:58:19;8.80;;;2.50;;
60026;SDS011;45891;53.006;6.512;2023-06-14T02:00:46;12.82;;;2.58;;
60026;SDS011;45891;53.006;6.512;2023-06-14T02:03:13;10.30;;;2.70;;
60026;SDS011;45891;53.006;6.512;2023-06-14T02:05:39;8.40;;;2.30;;
60026;SDS011;45891;53.006;6.512;2023-06-14T02:08:08;9.20;;;2.42;;
60026;SDS011;45891;53.006;6.512;2023-06-14T02:10:34;11.70;;;2.40;;
60026;SDS011;45891;53.006;6.512;2023-06-14T02:13:00;12.80;;;2.90;;
60026;SDS011;45891;53.006;6.512;2023-06-14T02:15:26;12.82;;;2.85;;
60026;SDS011;45891;53.006;6.512;2023-06-14T02:18:02;9.88;;;2.45;;
60026;SDS011;45891;53.006;6.512;2023-06-14T02:20:29;7.45;;;2.33;;
60026;SDS011;45891;53.006;6.512;2023-06-14T02:22:56;10.25;;;2.80;;
60026;SDS011;45891;53.006;6.512;2023-06-14T02:25:22;9.90;;;2.70;;
60026;SDS011;45891;53.006;6.512;2023-06-14T02:27:48;8.95;;;2.50;;
60026;SDS011;45891;53.006;6.512;2023-06-14T02:30:14;7.32;;;2.10;;
60026;SDS011;45891;53.006;6.512;2023-06-14T02:32:41;8.10;;;2.30;;
60026;SDS011;45891;53.006;6.512;2023-06-14T02:35:10;10.32;;;2.35;;
60026;SDS011;45891;53.006;6.512;2023-06-14T02:37:36;9.75;;;2.60;;
60026;SDS011;45891;53.006;6.512;2023-06-14T02:40:02;10.82;;;2.30;;
60026;SDS011;45891;53.006;6.512;2023-06-14T02:42:30;8.27;;;2.50;;
60026;SDS011;45891;53.006;6.512;2023-06-14T02:44:56;9.25;;;2.40;;
60026;SDS011;45891;53.006;6.512;2023-06-14T02:47:22;11.15;;;2.25;;
60026;SDS011;45891;53.006;6.512;2023-06-14T02:49:48;10.15;;;2.38;;
60026;SDS011;45891;53.006;6.512;2023-06-14T02:52:14;8.82;;;2.35;;
60026;SDS011;45891;53.006;6.512;2023-06-14T02:54:41;10.32;;;2.40;;
60026;SDS011;45891;53.006;6.512;2023-06-14T02:57:08;8.25;;;2.55;;
60026;SDS011;45891;53.006;6.512;2023-06-14T02:59:34;10.13;;;2.75;;
60026;SDS011;45891;53.006;6.512;2023-06-14T03:02:00;11.27;;;2.53;;
60026;SDS011;45891;53.006;6.512;2023-06-14T03:04:26;9.98;;;2.67;;
60026;SDS011;45891;53.006;6.512;2023-06-14T03:06:54;8.95;;;2.50;;
60026;SDS011;45891;53.006;6.512;2023-06-14T03:09:20;13.82;;;2.88;;
60026;SDS011;45891;53.006;6.512;2023-06-14T03:11:47;7.95;;;2.50;;
60026;SDS011;45891;53.006;6.512;2023-06-14T03:14:13;8.18;;;2.30;;
60026;SDS011;45891;53.006;6.512;2023-06-14T03:16:39;11.30;;;2.63;;
60026;SDS011;45891;53.006;6.512;2023-06-14T03:19:06;8.80;;;2.60;;
60026;SDS011;45891;53.006;6.512;2023-06-14T03:21:33;11.07;;;2.58;;
60026;SDS011;45891;53.006;6.512;2023-06-14T03:24:00;10.82;;;2.58;;
60026;SDS011;45891;53.006;6.512;2023-06-14T03:26:30;10.38;;;2.60;;
60026;SDS011;45891;53.006;6.512;2023-06-14T03:28:59;9.43;;;2.58;;
60026;SDS011;45891;53.006;6.512;2023-06-14T03:31:25;9.55;;;2.53;;
60026;SDS011;45891;53.006;6.512;2023-06-14T03:33:51;10.07;;;2.40;;
60026;SDS011;45891;53.006;6.512;2023-06-14T03:36:17;10.90;;;2.60;;
60026;SDS011;45891;53.006;6.512;2023-06-14T03:38:44;8.75;;;2.50;;
60026;SDS011;45891;53.006;6.512;2023-06-14T03:41:10;9.05;;;2.58;;
60026;SDS011;45891;53.006;6.512;2023-06-14T03:43:36;11.13;;;2.63;;
60026;SDS011;45891;53.006;6.512;2023-06-14T03:46:05;8.23;;;2.42;;
60026;SDS011;45891;53.006;6.512;2023-06-14T03:48:31;11.65;;;2.80;;
60026;SDS011;45891;53.006;6.512;2023-06-14T03:50:57;9.18;;;2.83;;
60026;SDS011;45891;53.006;6.512;2023-06-14T03:53:23;9.60;;;2.58;;
60026;SDS011;45891;53.006;6.512;2023-06-14T03:55:52;9.85;;;2.80;;
60026;SDS011;45891;53.006;6.512;2023-06-14T03:58:19;11.18;;;2.83;;
60026;SDS011;45891;53.006;6.512;2023-06-14T04:00:45;9.20;;;2.80;;
60026;SDS011;45891;53.006;6.512;2023-06-14T04:03:12;11.48;;;3.05;;
60026;SDS011;45891;53.006;6.512;2023-06-14T04:05:41;9.40;;;2.88;;
60026;SDS011;45891;53.006;6.512;2023-06-14T04:08:08;10.13;;;3.08;;
60026;SDS011;45891;53.006;6.512;2023-06-14T04:10:35;10.52;;;2.80;;
60026;SDS011;45891;53.006;6.512;2023-06-14T04:13:01;7.75;;;2.63;;
60026;SDS011;45891;53.006;6.512;2023-06-14T04:15:27;11.38;;;2.97;;
60026;SDS011;45891;53.006;6.512;2023-06-14T04:17:54;11.55;;;3.17;;
60026;SDS011;45891;53.006;6.512;2023-06-14T04:20:25;9.82;;;2.65;;
60026;SDS011;45891;53.006;6.512;2023-06-14T04:22:52;9.50;;;3.20;;
60026;SDS011;45891;53.006;6.512;2023-06-14T04:25:18;13.82;;;3.17;;
60026;SDS011;45891;53.006;6.512;2023-06-14T04:27:45;11.30;;;3.15;;
60026;SDS011;45891;53.006;6.512;2023-06-14T04:30:12;8.63;;;2.78;;
60026;SDS011;45891;53.006;6.512;2023-06-14T04:32:38;10.00;;;2.90;;
60026;SDS011;45891;53.006;6.512;2023-06-14T04:35:06;10.35;;;3.03;;
60026;SDS011;45891;53.006;6.512;2023-06-14T04:37:32;8.52;;;3.08;;
60026;SDS011;45891;53.006;6.512;2023-06-14T04:39:59;10.70;;;3.00;;
60026;SDS011;45891;53.006;6.512;2023-06-14T04:42:25;10.40;;;2.88;;
60026;SDS011;45891;53.006;6.512;2023-06-14T04:44:58;9.48;;;2.95;;
60026;SDS011;45891;53.006;6.512;2023-06-14T04:47:27;8.95;;;3.15;;
60026;SDS011;45891;53.006;6.512;2023-06-14T04:49:56;10.45;;;2.63;;
60026;SDS011;45891;53.006;6.512;2023-06-14T04:52:23;11.05;;;2.88;;
60026;SDS011;45891;53.006;6.512;2023-06-14T04:54:52;10.15;;;3.10;;
60026;SDS011;45891;53.006;6.512;2023-06-14T04:57:19;8.27;;;2.80;;
60026;SDS011;45891;53.006;6.512;2023-06-14T04:59:48;9.63;;;3.10;;
60026;SDS011;45891;53.006;6.512;2023-06-14T05:02:23;10.05;;;3.05;;
60026;SDS011;45891;53.006;6.512;2023-06-14T05:04:50;9.35;;;3.22;;
60026;SDS011;45891;53.006;6.512;2023-06-14T05:07:16;9.95;;;2.80;;
60026;SDS011;45891;53.006;6.512;2023-06-14T05:09:42;9.52;;;3.03;;
60026;SDS011;45891;53.006;6.512;2023-06-14T05:12:08;9.73;;;3.22;;
60026;SDS011;45891;53.006;6.512;2023-06-14T05:14:35;10.40;;;3.03;;
60026;SDS011;45891;53.006;6.512;2023-06-14T05:17:01;9.68;;;3.05;;
60026;SDS011;45891;53.006;6.512;2023-06-14T05:19:28;8.20;;;3.03;;
60026;SDS011;45891;53.006;6.512;2023-06-14T05:21:54;10.35;;;3.30;;
60026;SDS011;45891;53.006;6.512;2023-06-14T05:24:20;9.10;;;3.00;;
60026;SDS011;45891;53.006;6.512;2023-06-14T05:26:46;12.68;;;3.40;;
60026;SDS011;45891;53.006;6.512;2023-06-14T05:29:15;9.68;;;3.20;;
60026;SDS011;45891;53.006;6.512;2023-06-14T05:31:41;12.27;;;3.10;;
60026;SDS011;45891;53.006;6.512;2023-06-14T05:34:07;13.52;;;3.42;;
60026;SDS011;45891;53.006;6.512;2023-06-14T05:36:33;11.60;;;3.30;;
60026;SDS011;45891;53.006;6.512;2023-06-14T05:38:59;10.15;;;3.15;;
60026;SDS011;45891;53.006;6.512;2023-06-14T05:41:26;10.52;;;2.95;;
60026;SDS011;45891;53.006;6.512;2023-06-14T05:43:56;9.02;;;3.30;;
60026;SDS011;45891;53.006;6.512;2023-06-14T05:46:23;8.35;;;2.80;;
60026;SDS011;45891;53.006;6.512;2023-06-14T05:48:52;10.27;;;3.30;;
60026;SDS011;45891;53.006;6.512;2023-06-14T05:51:19;10.93;;;3.00;;
60026;SDS011;45891;53.006;6.512;2023-06-14T05:53:46;9.60;;;3.85;;
60026;SDS011;45891;53.006;6.512;2023-06-14T05:56:17;10.07;;;3.17;;
60026;SDS011;45891;53.006;6.512;2023-06-14T05:58:43;10.63;;;3.10;;
60026;SDS011;45891;53.006;6.512;2023-06-14T06:01:10;9.63;;;3.00;;
60026;SDS011;45891;53.006;6.512;2023-06-14T06:03:37;10.95;;;2.78;;
60026;SDS011;45891;53.006;6.512;2023-06-14T06:06:03;8.10;;;2.55;;
60026;SDS011;45891;53.006;6.512;2023-06-14T06:08:29;8.73;;;2.83;;
60026;SDS011;45891;53.006;6.512;2023-06-14T06:10:56;10.15;;;3.03;;
60026;SDS011;45891;53.006;6.512;2023-06-14T06:13:23;10.20;;;2.70;;
60026;SDS011;45891;53.006;6.512;2023-06-14T06:15:49;8.80;;;2.40;;
60026;SDS011;45891;53.006;6.512;2023-06-14T06:18:15;10.90;;;2.80;;
60026;SDS011;45891;53.006;6.512;2023-06-14T06:20:41;11.48;;;2.88;;
60026;SDS011;45891;53.006;6.512;2023-06-14T06:23:07;10.35;;;2.80;;
60026;SDS011;45891;53.006;6.512;2023-06-14T06:25:36;9.80;;;2.53;;
60026;SDS011;45891;53.006;6.512;2023-06-14T06:28:02;11.05;;;2.78;;
60026;SDS011;45891;53.006;6.512;2023-06-14T06:30:28;7.63;;;2.50;;
60026;SDS011;45891;53.006;6.512;2023-06-14T06:32:55;9.75;;;2.55;;
60026;SDS011;45891;53.006;6.512;2023-06-14T06:35:21;10.65;;;2.70;;
60026;SDS011;45891;53.006;6.512;2023-06-14T06:37:47;7.63;;;2.40;;
60026;SDS011;45891;53.006;6.512;2023-06-14T06:40:13;9.63;;;2.60;;
60026;SDS011;45891;53.006;6.512;2023-06-14T06:42:39;9.55;;;2.30;;
60026;SDS011;45891;53.006;6.512;2023-06-14T06:45:05;11.73;;;2.40;;
60026;SDS011;45891;53.006;6.512;2023-06-14T06:47:32;8.40;;;2.35;;
60026;SDS011;45891;53.006;6.512;2023-06-14T06:49:58;9.07;;;2.30;;
60026;SDS011;45891;53.006;6.512;2023-06-14T06:52:24;7.50;;;2.35;;
60026;SDS011;45891;53.006;6.512;2023-06-14T06:54:54;11.77;;;2.40;;
60026;SDS011;45891;53.006;6.512;2023-06-14T06:57:21;10.35;;;2.30;;
60026;SDS011;45891;53.006;6.512;2023-06-14T06:59:48;10.85;;;2.28;;
60026;SDS011;45891;53.006;6.512;2023-06-14T07:02:15;10.95;;;2.30;;
60026;SDS011;45891;53.006;6.512;2023-06-14T07:04:42;8.63;;;2.58;;
60026;SDS011;45891;53.006;6.512;2023-06-14T07:07:11;7.53;;;2.00;;
60026;SDS011;45891;53.006;6.512;2023-06-14T07:09:37;7.32;;;2.20;;
60026;SDS011;45891;53.006;6.512;2023-06-14T07:12:11;8.88;;;2.30;;
60026;SDS011;45891;53.006;6.512;2023-06-14T07:14:37;12.10;;;2.40;;
60026;SDS011;45891;53.006;6.512;2023-06-14T07:17:06;10.60;;;2.40;;
60026;SDS011;45891;53.006;6.512;2023-06-14T07:19:32;9.18;;;2.20;;
60026;SDS011;45891;53.006;6.512;2023-06-14T07:22:01;8.30;;;2.15;;
60026;SDS011;45891;53.006;6.512;2023-06-14T07:24:27;14.15;;;2.38;;
60026;SDS011;45891;53.006;6.512;2023-06-14T07:26:53;7.55;;;2.00;;
60026;SDS011;45891;53.006;6.512;2023-06-14T07:29:21;9.48;;;2.17;;
60026;SDS011;45891;53.006;6.512;2023-06-14T07:31:47;12.20;;;2.22;;
60026;SDS011;45891;53.006;6.512;2023-06-14T07:34:16;12.82;;;2.10;;
60026;SDS011;45891;53.006;6.512;2023-06-14T07:36:43;9.38;;;2.08;;
60026;SDS011;45891;53.006;6.512;2023-06-14T07:39:10;8.15;;;2.13;;
60026;SDS011;45891;53.006;6.512;2023-06-14T07:41:36;10.40;;;2.30;;
60026;SDS011;45891;53.006;6.512;2023-06-14T07:44:02;7.00;;;2.10;;
60026;SDS011;45891;53.006;6.512;2023-06-14T07:46:29;6.90;;;1.92;;
60026;SDS011;45891;53.006;6.512;2023-06-14T07:48:58;10.63;;;2.10;;
60026;SDS011;45891;53.006;6.512;2023-06-14T07:51:24;12.23;;;2.25;;
60026;SDS011;45891;53.006;6.512;2023-06-14T07:53:50;10.50;;;2.10;;
60026;SDS011;45891;53.006;6.512;2023-06-14T07:56:16;7.57;;;2.00;;
60026;SDS011;45891;53.006;6.512;2023-06-14T07:58:45;8.37;;;1.90;;
60026;SDS011;45891;53.006;6.512;2023-06-14T08:01:11;9.88;;;2.30;;
60026;SDS011;45891;53.006;6.512;2023-06-14T08:03:38;10.82;;;1.98;;
60026;SDS011;45891;53.006;6.512;2023-06-14T08:06:04;9.32;;;2.35;;
60026;SDS011;45891;53.006;6.512;2023-06-14T08:08:30;8.75;;;2.10;;
60026;SDS011;45891;53.006;6.512;2023-06-14T08:10:56;7.63;;;2.10;;
60026;SDS011;45891;53.006;6.512;2023-06-14T08:13:22;10.90;;;2.40;;
60026;SDS011;45891;53.006;6.512;2023-06-14T08:15:49;13.15;;;2.33;;
60026;SDS011;45891;53.006;6.512;2023-06-14T08:18:15;7.10;;;1.83;;
60026;SDS011;45891;53.006;6.512;2023-06-14T08:20:41;9.25;;;2.10;;
60026;SDS011;45891;53.006;6.512;2023-06-14T08:23:10;8.50;;;2.20;;
60026;SDS011;45891;53.006;6.512;2023-06-14T08:25:36;7.75;;;1.95;;
60026;SDS011;45891;53.006;6.512;2023-06-14T08:28:03;9.93;;;2.42;;
60026;SDS011;45891;53.006;6.512;2023-06-14T08:30:29;5.88;;;1.73;;
60026;SDS011;45891;53.006;6.512;2023-06-14T08:32:55;7.28;;;1.88;;
60026;SDS011;45891;53.006;6.512;2023-06-14T08:35:22;9.85;;;2.05;;
60026;SDS011;45891;53.006;6.512;2023-06-14T08:37:48;9.18;;;1.90;;
60026;SDS011;45891;53.006;6.512;2023-06-14T08:40:19;8.68;;;1.90;;
60026;SDS011;45891;53.006;6.512;2023-06-14T08:42:47;7.10;;;1.85;;
60026;SDS011;45891;53.006;6.512;2023-06-14T08:47:43;6.82;;;1.95;;
60026;SDS011;45891;53.006;6.512;2023-06-14T08:50:11;7.88;;;2.10;;
60026;SDS011;45891;53.006;6.512;2023-06-14T08:52:38;10.63;;;2.15;;
60026;SDS011;45891;53.006;6.512;2023-06-14T08:55:15;7.45;;;2.00;;
60026;SDS011;45891;53.006;6.512;2023-06-14T08:57:43;11.10;;;2.00;;
60026;SDS011;45891;53.006;6.512;2023-06-14T09:00:11;12.25;;;2.10;;
60026;SDS011;45891;53.006;6.512;2023-06-14T09:02:39;10.02;;;2.17;;
60026;SDS011;45891;53.006;6.512;2023-06-14T09:05:09;8.68;;;1.90;;
60026;SDS011;45891;53.006;6.512;2023-06-14T09:07:41;13.73;;;2.15;;
60026;SDS011;45891;53.006;6.512;2023-06-14T09:10:12;8.40;;;1.88;;
60026;SDS011;45891;53.006;6.512;2023-06-14T09:12:40;7.75;;;1.80;;
60026;SDS011;45891;53.006;6.512;2023-06-14T09:15:06;8.02;;;1.92;;
60026;SDS011;45891;53.006;6.512;2023-06-14T09:17:37;6.75;;;1.80;;
60026;SDS011;45891;53.006;6.512;2023-06-14T09:20:04;8.98;;;1.80;;
60026;SDS011;45891;53.006;6.512;2023-06-14T09:22:34;7.07;;;1.60;;
60026;SDS011;45891;53.006;6.512;2023-06-14T09:25:01;8.27;;;1.60;;
60026;SDS011;45891;53.006;6.512;2023-06-14T09:27:30;6.97;;;1.90;;
60026;SDS011;45891;53.006;6.512;2023-06-14T09:32:24;11.60;;;1.90;;
60026;SDS011;45891;53.006;6.512;2023-06-14T09:34:50;10.27;;;1.98;;
60026;SDS011;45891;53.006;6.512;2023-06-14T09:37:30;8.30;;;1.77;;
60026;SDS011;45891;53.006;6.512;2023-06-14T09:42:23;9.75;;;1.98;;
60026;SDS011;45891;53.006;6.512;2023-06-14T09:47:20;5.97;;;1.70;;
60026;SDS011;45891;53.006;6.512;2023-06-14T09:49:47;8.73;;;2.17;;
60026;SDS011;45891;53.006;6.512;2023-06-14T09:52:15;11.63;;;1.75;;
60026;SDS011;45891;53.006;6.512;2023-06-14T09:54:45;10.32;;;1.67;;
60026;SDS011;45891;53.006;6.512;2023-06-14T09:57:17;7.43;;;1.67;;
60026;SDS011;45891;53.006;6.512;2023-06-14T09:59:47;7.15;;;2.00;;
60026;SDS011;45891;53.006;6.512;2023-06-14T10:02:18;10.50;;;1.77;;
60026;SDS011;45891;53.006;6.512;2023-06-14T10:04:56;6.32;;;1.83;;
60026;SDS011;45891;53.006;6.512;2023-06-14T10:07:30;10.30;;;1.98;;
60026;SDS011;45891;53.006;6.512;2023-06-14T10:10:00;7.75;;;1.60;;
60026;SDS011;45891;53.006;6.512;2023-06-14T10:12:27;6.55;;;1.85;;
60026;SDS011;45891;53.006;6.512;2023-06-14T10:14:53;10.48;;;2.00;;
60026;SDS011;45891;53.006;6.512;2023-06-14T10:17:35;8.82;;;1.80;;
60026;SDS011;45891;53.006;6.512;2023-06-14T10:21:02;7.47;;;1.80;;
60026;SDS011;45891;53.006;6.512;2023-06-14T10:23:16;7.63;;;1.77;;
60026;SDS011;45891;53.006;6.512;2023-06-14T10:25:45;5.70;;;1.60;;
60026;SDS011;45891;53.006;6.512;2023-06-14T10:28:17;7.57;;;1.58;;
60026;SDS011;45891;53.006;6.512;2023-06-14T10:33:48;8.75;;;1.65;;
60026;SDS011;45891;53.006;6.512;2023-06-14T10:39:00;6.63;;;1.50;;
60026;SDS011;45891;53.006;6.512;2023-06-14T10:41:50;6.85;;;1.60;;
60026;SDS011;45891;53.006;6.512;2023-06-14T10:46:46;6.22;;;1.40;;
60026;SDS011;45891;53.006;6.512;2023-06-14T10:49:18;6.25;;;1.60;;
60026;SDS011;45891;53.006;6.512;2023-06-14T10:51:45;7.47;;;1.52;;
60026;SDS011;45891;53.006;6.512;2023-06-14T10:54:16;7.38;;;1.40;;
60026;SDS011;45891;53.006;6.512;2023-06-14T10:56:51;8.05;;;1.60;;
60026;SDS011;45891;53.006;6.512;2023-06-14T10:59:18;5.40;;;1.25;;
60026;SDS011;45891;53.006;6.512;2023-06-14T11:02:13;9.35;;;1.88;;
60026;SDS011;45891;53.006;6.512;2023-06-14T11:04:51;6.00;;;1.35;;
60026;SDS011;45891;53.006;6.512;2023-06-14T11:13:07;9.15;;;1.30;;
60026;SDS011;45891;53.006;6.512;2023-06-14T11:15:34;9.50;;;1.50;;
60026;SDS011;45891;53.006;6.512;2023-06-14T11:18:02;6.03;;;1.40;;
60026;SDS011;45891;53.006;6.512;2023-06-14T11:20:31;7.00;;;1.35;;
60026;SDS011;45891;53.006;6.512;2023-06-14T11:22:58;10.63;;;1.40;;
60026;SDS011;45891;53.006;6.512;2023-06-14T11:25:25;5.03;;;1.23;;
60026;SDS011;45891;53.006;6.512;2023-06-14T11:27:53;7.82;;;1.67;;
60026;SDS011;45891;53.006;6.512;2023-06-14T11:30:22;5.60;;;1.30;;
60026;SDS011;45891;53.006;6.512;2023-06-14T11:32:51;5.05;;;1.40;;
60026;SDS011;45891;53.006;6.512;2023-06-14T11:35:19;7.32;;;1.70;;
60026;SDS011;45891;53.006;6.512;2023-06-14T11:37:53;6.03;;;1.50;;
60026;SDS011;45891;53.006;6.512;2023-06-14T11:40:25;6.60;;;1.70;;
60026;SDS011;45891;53.006;6.512;2023-06-14T11:42:59;6.80;;;1.67;;
60026;SDS011;45891;53.006;6.512;2023-06-14T11:45:27;9.32;;;1.67;;
60026;SDS011;45891;53.006;6.512;2023-06-14T11:47:56;7.63;;;1.65;;
60026;SDS011;45891;53.006;6.512;2023-06-14T11:50:24;8.35;;;1.65;;
60026;SDS011;45891;53.006;6.512;2023-06-14T11:52:57;6.53;;;1.45;;
60026;SDS011;45891;53.006;6.512;2023-06-14T11:55:39;5.35;;;1.50;;
60026;SDS011;45891;53.006;6.512;2023-06-14T11:58:06;6.28;;;1.52;;
60026;SDS011;45891;53.006;6.512;2023-06-14T12:00:32;7.68;;;1.63;;
60026;SDS011;45891;53.006;6.512;2023-06-14T12:03:01;9.07;;;1.50;;
60026;SDS011;45891;53.006;6.512;2023-06-14T12:05:28;9.90;;;1.50;;
60026;SDS011;45891;53.006;6.512;2023-06-14T12:07:58;6.72;;;1.58;;
60026;SDS011;45891;53.006;6.512;2023-06-14T12:10:25;9.00;;;1.80;;
60026;SDS011;45891;53.006;6.512;2023-06-14T12:12:56;6.57;;;1.50;;
60026;SDS011;45891;53.006;6.512;2023-06-14T12:15:28;6.90;;;1.40;;
60026;SDS011;45891;53.006;6.512;2023-06-14T12:17:58;7.88;;;1.60;;
60026;SDS011;45891;53.006;6.512;2023-06-14T12:20:28;6.88;;;1.60;;
60026;SDS011;45891;53.006;6.512;2023-06-14T12:22:58;8.55;;;1.67;;
60026;SDS011;45891;53.006;6.512;2023-06-14T12:25:36;6.30;;;1.40;;
60026;SDS011;45891;53.006;6.512;2023-06-14T12:28:08;7.05;;;1.70;;
60026;SDS011;45891;53.006;6.512;2023-06-14T12:30:35;6.53;;;1.52;;
60026;SDS011;45891;53.006;6.512;2023-06-14T12:33:05;8.52;;;1.48;;
60026;SDS011;45891;53.006;6.512;2023-06-14T12:35:32;6.80;;;1.38;;
60026;SDS011;45891;53.006;6.512;2023-06-14T12:37:59;7.05;;;1.38;;
60026;SDS011;45891;53.006;6.512;2023-06-14T12:40:25;9.75;;;1.42;;
60026;SDS011;45891;53.006;6.512;2023-06-14T12:42:52;6.78;;;1.48;;
60026;SDS011;45891;53.006;6.512;2023-06-14T12:45:18;8.05;;;1.45;;
60026;SDS011;45891;53.006;6.512;2023-06-14T12:47:44;5.50;;;1.40;;
60026;SDS011;45891;53.006;6.512;2023-06-14T12:50:10;6.85;;;1.67;;
60026;SDS011;45891;53.006;6.512;2023-06-14T12:52:36;9.57;;;1.70;;
60026;SDS011;45891;53.006;6.512;2023-06-14T12:55:03;7.95;;;1.60;;
60026;SDS011;45891;53.006;6.512;2023-06-14T12:57:30;7.20;;;1.38;;
60026;SDS011;45891;53.006;6.512;2023-06-14T12:59:57;9.48;;;1.50;;
60026;SDS011;45891;53.006;6.512;2023-06-14T13:02:23;8.30;;;1.63;;
60026;SDS011;45891;53.006;6.512;2023-06-14T13:04:50;6.45;;;1.60;;
60026;SDS011;45891;53.006;6.512;2023-06-14T13:07:16;6.47;;;1.48;;
60026;SDS011;45891;53.006;6.512;2023-06-14T13:09:42;6.95;;;1.58;;
60026;SDS011;45891;53.006;6.512;2023-06-14T13:12:10;10.02;;;1.50;;
60026;SDS011;45891;53.006;6.512;2023-06-14T13:14:39;8.20;;;1.58;;
60026;SDS011;45891;53.006;6.512;2023-06-14T13:17:09;4.57;;;1.30;;
60026;SDS011;45891;53.006;6.512;2023-06-14T13:19:35;5.43;;;1.40;;
60026;SDS011;45891;53.006;6.512;2023-06-14T13:22:02;8.27;;;1.58;;
60026;SDS011;45891;53.006;6.512;2023-06-14T13:24:28;6.35;;;1.50;;
60026;SDS011;45891;53.006;6.512;2023-06-14T13:26:55;5.93;;;1.40;;
60026;SDS011;45891;53.006;6.512;2023-06-14T13:29:23;6.85;;;1.40;;
60026;SDS011;45891;53.006;6.512;2023-06-14T13:31:50;5.82;;;1.42;;
60026;SDS011;45891;53.006;6.512;2023-06-14T13:34:16;6.85;;;1.42;;
60026;SDS011;45891;53.006;6.512;2023-06-14T13:36:42;9.60;;;1.55;;
60026;SDS011;45891;53.006;6.512;2023-06-14T13:39:08;7.57;;;1.48;;
60026;SDS011;45891;53.006;6.512;2023-06-14T13:41:36;8.32;;;1.50;;
60026;SDS011;45891;53.006;6.512;2023-06-14T13:44:02;6.78;;;1.40;;
60026;SDS011;45891;53.006;6.512;2023-06-14T13:46:32;10.43;;;1.50;;
60026;SDS011;45891;53.006;6.512;2023-06-14T13:48:58;7.32;;;1.40;;
60026;SDS011;45891;53.006;6.512;2023-06-14T13:51:25;8.30;;;1.50;;
60026;SDS011;45891;53.006;6.512;2023-06-14T13:53:52;8.15;;;1.38;;
60026;SDS011;45891;53.006;6.512;2023-06-14T13:56:21;6.50;;;1.35;;
60026;SDS011;45891;53.006;6.512;2023-06-14T13:58:50;6.50;;;1.50;;
60026;SDS011;45891;53.006;6.512;2023-06-14T14:01:17;8.13;;;1.70;;
60026;SDS011;45891;53.006;6.512;2023-06-14T14:03:45;7.50;;;1.77;;
60026;SDS011;45891;53.006;6.512;2023-06-14T14:06:12;7.70;;;1.58;;
60026;SDS011;45891;53.006;6.512;2023-06-14T14:08:38;7.25;;;1.40;;
60026;SDS011;45891;53.006;6.512;2023-06-14T14:11:05;5.63;;;1.50;;
60026;SDS011;45891;53.006;6.512;2023-06-14T14:13:31;6.95;;;1.50;;
60026;SDS011;45891;53.006;6.512;2023-06-14T14:15:57;6.05;;;1.58;;
60026;SDS011;45891;53.006;6.512;2023-06-14T14:18:24;6.23;;;1.67;;
60026;SDS011;45891;53.006;6.512;2023-06-14T14:20:50;10.27;;;1.60;;
60026;SDS011;45891;53.006;6.512;2023-06-14T14:23:16;9.15;;;1.63;;
60026;SDS011;45891;53.006;6.512;2023-06-14T14:25:43;7.07;;;1.48;;
60026;SDS011;45891;53.006;6.512;2023-06-14T14:28:09;7.25;;;1.58;;
60026;SDS011;45891;53.006;6.512;2023-06-14T14:30:36;5.93;;;1.70;;
60026;SDS011;45891;53.006;6.512;2023-06-14T14:33:05;8.35;;;1.77;;
60026;SDS011;45891;53.006;6.512;2023-06-14T14:35:32;6.65;;;1.50;;
60026;SDS011;45891;53.006;6.512;2023-06-14T14:37:58;6.20;;;1.65;;
60026;SDS011;45891;53.006;6.512;2023-06-14T14:40:25;8.40;;;1.55;;
60026;SDS011;45891;53.006;6.512;2023-06-14T14:42:51;7.90;;;1.65;;
60026;SDS011;45891;53.006;6.512;2023-06-14T14:45:17;5.78;;;1.58;;
60026;SDS011;45891;53.006;6.512;2023-06-14T14:47:43;6.75;;;1.85;;
60026;SDS011;45891;53.006;6.512;2023-06-14T14:50:09;6.38;;;1.38;;
60026;SDS011;45891;53.006;6.512;2023-06-14T14:52:38;8.18;;;1.77;;
60026;SDS011;45891;53.006;6.512;2023-06-14T14:55:04;9.52;;;1.77;;
60026;SDS011;45891;53.006;6.512;2023-06-14T14:57:31;7.18;;;1.65;;
60026;SDS011;45891;53.006;6.512;2023-06-14T14:59:58;6.90;;;1.65;;
60026;SDS011;45891;53.006;6.512;2023-06-14T15:02:24;9.95;;;1.80;;
60026;SDS011;45891;53.006;6.512;2023-06-14T15:04:50;6.95;;;1.80;;
60026;SDS011;45891;53.006;6.512;2023-06-14T15:07:17;7.50;;;1.77;;
60026;SDS011;45891;53.006;6.512;2023-06-14T15:09:43;8.10;;;1.70;;
60026;SDS011;45891;53.006;6.512;2023-06-14T15:12:09;7.93;;;1.63;;
60026;SDS011;45891;53.006;6.512;2023-06-14T15:14:36;5.35;;;1.60;;